createdAt,value
2017-05-19T16:28:05.897Z,52.79
2017-05-19T17:10:10.388Z,52.36
2017-05-19T17:11:07.114Z,51.97
2017-05-19T17:21:01.303Z,54.43
2017-05-19T17:21:58.028Z,53.83
2017-05-19T17:22:54.726Z,53.80
2017-05-19T17:25:43.914Z,52.61
2017-05-19T17:35:08.792Z,54.85
2017-05-19T17:36:05.493Z,53.74
2017-05-19T17:38:10.533Z,51.43
2017-05-19T17:39:07.232Z,51.87
2017-05-19T17:40:03.927Z,52.84
2017-05-19T17:41:00.619Z,52.60
2017-05-19T17:42:12.709Z,52.75
2017-05-19T17:43:46.274Z,54.79
2017-05-19T17:44:36.928Z,53.74
2017-05-19T17:45:27.577Z,52.91
2017-05-19T17:46:18.337Z,53.04
2017-05-19T17:47:30.792Z,52.40
2017-05-19T17:48:21.755Z,54.86
2017-05-19T17:49:12.729Z,53.31
2017-05-19T17:50:03.681Z,53.61
2017-05-19T17:50:54.644Z,54.94
2017-05-19T17:51:45.599Z,53.94
2017-05-19T17:52:36.545Z,53.11
2017-05-19T17:53:27.498Z,55.62
2017-05-19T17:54:18.487Z,54.96
2017-05-19T17:55:09.439Z,53.90
2017-05-19T17:56:00.427Z,55.05
2017-05-19T17:56:51.411Z,54.75
2017-05-19T17:57:42.362Z,54.11
2017-05-19T17:58:33.317Z,55.49
2017-05-19T17:59:24.299Z,55.11
2017-05-19T18:00:13.775Z,52.09
2017-05-19T18:01:05.013Z,52.35
2017-05-19T18:01:56.248Z,54.82
2017-05-19T18:02:47.483Z,53.80
2017-05-19T18:03:38.738Z,55.12
2017-05-19T18:04:29.987Z,54.09
2017-05-19T18:05:21.227Z,54.82
2017-05-19T18:06:12.453Z,53.76
2017-05-19T18:07:22.535Z,52.54
2017-05-19T18:08:13.770Z,52.88
2017-05-19T18:09:05.001Z,54.63
2017-05-19T18:09:56.300Z,52.61
2017-05-19T18:10:47.554Z,53.49
2017-05-19T18:11:38.790Z,54.09
2017-05-19T18:12:30.031Z,53.04
2017-05-19T18:13:21.290Z,54.05
2017-05-19T18:14:12.539Z,53.98
2017-05-19T18:15:03.819Z,54.51
2017-05-19T18:15:55.084Z,53.96
2017-05-19T18:16:46.315Z,54.47
2017-05-19T18:17:37.603Z,53.51
2017-05-19T18:18:28.843Z,53.63
2017-05-19T18:19:20.079Z,53.97
2017-05-19T18:20:11.326Z,54.57
2017-05-19T18:21:02.579Z,54.28
2017-05-19T18:21:53.820Z,53.66
2017-05-19T18:22:45.047Z,54.14
2017-05-19T18:23:36.274Z,54.07
2017-05-19T18:24:27.506Z,53.14
2017-05-19T18:25:18.755Z,53.50
2017-05-19T18:26:10.003Z,53.87
2017-05-19T18:27:01.238Z,53.08
2017-05-19T18:27:52.479Z,53.25
2017-05-19T18:28:43.729Z,53.17
2017-05-19T18:29:34.963Z,53.64
2017-05-19T18:30:26.255Z,53.42
2017-05-19T18:31:17.486Z,53.51
2017-05-19T18:32:08.720Z,53.80
2017-05-19T18:32:59.963Z,53.29
2017-05-19T18:33:51.207Z,52.84
2017-05-19T18:34:42.440Z,53.22
2017-05-19T18:35:33.713Z,53.63
2017-05-19T18:36:24.938Z,53.23
2017-05-19T18:37:16.171Z,53.38
2017-05-19T18:38:07.414Z,53.68
2017-05-19T18:38:58.655Z,53.49
2017-05-19T18:39:49.887Z,54.02
2017-05-19T18:40:41.179Z,53.12
2017-05-19T18:41:32.419Z,53.48
2017-05-19T18:42:23.657Z,53.55
2017-05-19T18:43:14.887Z,53.42
2017-05-19T18:44:06.123Z,53.33
2017-05-19T18:44:57.379Z,53.53
2017-05-19T18:45:48.665Z,53.79
2017-05-19T18:46:39.900Z,53.71
2017-05-19T18:47:31.288Z,53.99
2017-05-19T18:48:22.821Z,54.90
2017-05-19T18:49:14.058Z,54.58
2017-05-19T18:50:05.295Z,54.62
2017-05-19T18:50:56.550Z,52.75
2017-05-19T18:51:47.788Z,52.90
2017-05-19T18:52:39.051Z,54.43
2017-05-19T18:53:30.298Z,52.83
2017-05-19T18:54:21.526Z,52.83
2017-05-19T18:55:12.762Z,53.21
2017-05-19T18:56:04.303Z,52.94
2017-05-19T18:56:55.534Z,53.02
2017-05-19T18:57:48.347Z,52.92
2017-05-19T18:58:39.578Z,53.06
2017-05-19T18:59:30.814Z,53.18
2017-05-19T19:00:22.051Z,55.61
2017-05-19T19:01:13.304Z,55.32
2017-05-19T19:02:04.535Z,53.31
2017-05-19T19:02:55.779Z,53.22
2017-05-19T19:03:47.007Z,53.04
2017-05-19T19:04:38.235Z,49.77
2017-05-19T19:05:29.488Z,49.43
2017-05-19T19:06:20.743Z,53.60
2017-05-19T19:07:11.983Z,52.44
2017-05-19T19:08:03.214Z,51.31
2017-05-19T19:08:54.459Z,51.67
2017-05-19T19:09:45.687Z,51.05
2017-05-19T19:10:36.919Z,50.81
2017-05-19T19:11:28.291Z,51.12
2017-05-19T19:12:19.518Z,50.21
2017-05-19T19:13:10.756Z,50.25
2017-05-19T19:14:02.175Z,50.32
2017-05-19T19:14:53.482Z,50.30
2017-05-19T19:15:44.862Z,50.25
2017-05-19T19:16:36.161Z,50.06
2017-05-19T19:17:27.395Z,50.40
2017-05-19T19:18:18.631Z,50.20
2017-05-19T19:19:09.859Z,51.36
2017-05-19T19:20:01.088Z,50.07
2017-05-19T19:20:52.558Z,49.82
2017-05-19T19:21:43.854Z,49.86
2017-05-19T19:22:35.091Z,49.75
2017-05-19T19:23:26.319Z,49.80
2017-05-19T19:24:17.551Z,49.44
2017-05-19T19:25:08.803Z,49.34
2017-05-19T19:26:00.047Z,49.35
2017-05-19T19:26:51.471Z,49.67
2017-05-19T19:27:42.795Z,49.42
2017-05-19T19:28:34.294Z,49.63
2017-05-19T19:29:25.567Z,49.12
2017-05-19T19:30:16.794Z,48.98
2017-05-19T19:31:08.079Z,48.90
2017-05-19T19:31:59.505Z,49.59
2017-05-19T19:32:50.751Z,49.36
2017-05-19T19:33:42.051Z,48.53
2017-05-19T19:34:33.283Z,49.10
2017-05-19T19:35:24.531Z,48.90
2017-05-19T19:36:16.018Z,49.20
2017-05-19T19:37:07.389Z,48.91
2017-05-19T19:37:58.627Z,48.81
2017-05-19T19:38:49.854Z,48.68
2017-05-19T19:39:42.248Z,48.69
2017-05-19T19:40:33.501Z,48.82
2017-05-19T19:41:24.739Z,48.54
2017-05-19T19:42:15.990Z,48.62
2017-05-19T19:43:07.236Z,48.55
2017-05-19T19:43:58.492Z,48.73
2017-05-19T19:44:49.724Z,48.60
2017-05-19T19:45:41.003Z,48.73
2017-05-19T19:46:32.811Z,48.78
2017-05-19T19:47:24.140Z,48.94
2017-05-19T19:48:15.396Z,49.07
2017-05-19T19:49:06.679Z,49.54
2017-05-19T19:49:57.948Z,49.24
2017-05-19T19:50:49.183Z,49.17
2017-05-19T19:51:40.426Z,49.38
2017-05-19T19:52:31.663Z,49.30
2017-05-19T19:53:22.907Z,49.50
2017-05-19T19:54:14.144Z,49.46
2017-05-19T19:55:05.415Z,48.74
2017-05-19T19:55:56.653Z,48.89
2017-05-19T19:56:47.883Z,48.84
2017-05-19T19:57:39.145Z,48.72
2017-05-19T19:58:30.412Z,48.70
2017-05-19T19:59:21.688Z,48.61
2017-05-19T20:00:12.963Z,48.56
2017-05-19T20:01:04.291Z,49.14
2017-05-19T20:01:55.587Z,48.91
2017-05-19T20:02:46.868Z,48.63
2017-05-19T20:03:38.099Z,48.44
2017-05-19T20:04:29.335Z,48.58
2017-05-19T20:05:20.571Z,48.47
2017-05-19T20:06:11.826Z,48.56
2017-05-19T20:07:03.057Z,48.42
2017-05-19T20:07:54.345Z,48.82
2017-05-19T20:08:45.615Z,48.54
2017-05-19T20:09:36.879Z,48.44
2017-05-19T20:10:28.191Z,48.47
2017-05-19T20:11:19.469Z,48.49
2017-05-19T20:12:10.707Z,48.45
2017-05-19T20:13:01.975Z,48.60
2017-05-19T20:13:53.226Z,48.81
2017-05-19T20:14:44.518Z,48.74
2017-05-19T20:15:35.755Z,48.89
2017-05-19T20:16:26.990Z,48.26
2017-05-19T20:17:18.259Z,48.37
2017-05-19T20:18:09.526Z,48.61
2017-05-19T20:19:00.754Z,48.51
2017-05-19T20:19:52.000Z,48.55
2017-05-19T20:20:43.235Z,48.50
2017-05-19T20:21:34.476Z,48.76
2017-05-19T20:22:25.716Z,49.23
2017-05-19T20:23:17.001Z,49.67
2017-05-19T20:24:08.302Z,48.83
2017-05-19T20:24:59.610Z,49.03
2017-05-19T20:25:50.851Z,49.08
2017-05-19T20:26:42.130Z,49.23
2017-05-19T20:27:33.414Z,49.38
2017-05-19T20:28:24.671Z,49.16
2017-05-19T20:29:15.915Z,49.66
2017-05-19T20:31:05.158Z,49.40
2017-05-19T20:31:56.399Z,49.67
2017-05-19T20:32:47.772Z,49.34
2017-05-19T20:33:39.027Z,49.65
2017-05-19T20:34:30.262Z,51.20
2017-05-19T20:35:21.491Z,52.15
2017-05-19T20:36:12.746Z,50.71
2017-05-19T20:37:03.995Z,50.63
2017-05-19T20:37:55.249Z,51.29
2017-05-19T20:38:46.510Z,51.05
2017-05-19T20:39:37.759Z,50.65
2017-05-19T20:40:28.995Z,50.83
2017-05-19T20:41:20.254Z,50.57
2017-05-19T20:42:11.495Z,50.21
2017-05-19T20:43:02.734Z,51.27
2017-05-19T20:43:53.997Z,50.29
2017-05-19T20:44:45.232Z,50.65
2017-05-19T20:45:36.483Z,50.71
2017-05-19T20:46:27.719Z,50.31
2017-05-19T20:47:18.967Z,51.67
2017-05-19T20:48:10.206Z,50.85
2017-05-19T20:49:01.466Z,50.80
2017-05-19T20:49:52.713Z,50.86
2017-05-19T20:50:43.960Z,50.46
2017-05-19T20:51:35.195Z,50.31
2017-05-19T20:52:26.424Z,50.70
2017-05-19T20:53:17.663Z,50.04
2017-05-19T20:54:08.911Z,50.58
2017-05-19T20:55:00.139Z,50.70
2017-05-19T20:55:51.371Z,50.37
2017-05-19T20:56:42.611Z,50.53
2017-05-19T20:57:33.843Z,51.16
2017-05-19T20:58:25.087Z,50.38
2017-05-19T20:59:16.338Z,50.65
2017-05-19T21:00:07.574Z,50.49
2017-05-19T21:00:58.815Z,51.07
2017-05-19T21:01:50.047Z,51.65
2017-05-19T21:02:41.296Z,50.22
2017-05-19T21:03:32.538Z,50.13
2017-05-19T21:04:23.799Z,50.02
2017-05-19T21:05:15.022Z,50.16
2017-05-19T21:06:06.259Z,50.20
2017-05-19T21:06:57.504Z,50.41
2017-05-19T21:07:48.743Z,50.60
2017-05-19T21:08:39.977Z,52.82
2017-05-19T21:09:31.227Z,50.50
2017-05-19T21:10:22.450Z,50.51
2017-05-19T21:11:13.687Z,50.52
2017-05-19T21:12:04.931Z,52.42
2017-05-19T21:12:56.172Z,51.39
2017-05-19T21:13:47.406Z,51.08
2017-05-19T21:14:58.120Z,53.17
2017-05-19T21:15:49.367Z,51.55
2017-05-19T21:16:40.595Z,51.29
2017-05-19T21:17:31.838Z,50.83
2017-05-19T21:18:23.067Z,51.01
2017-05-19T21:19:14.295Z,50.97
2017-05-19T21:20:05.559Z,50.52
2017-05-19T21:20:56.803Z,51.37
2017-05-19T21:21:48.035Z,52.57
2017-05-19T21:22:39.278Z,52.57
2017-05-19T21:23:30.607Z,50.84
2017-05-19T21:24:21.980Z,51.17
2017-05-19T21:25:13.354Z,51.00
2017-05-19T21:26:04.595Z,52.25
2017-05-19T21:26:55.838Z,51.15
2017-05-19T21:27:47.071Z,51.86
2017-05-19T21:28:38.315Z,50.59
2017-05-19T21:29:29.546Z,50.81
2017-05-19T21:30:20.802Z,50.52
2017-05-19T21:31:12.083Z,52.10
2017-05-19T21:32:03.347Z,51.08
2017-05-19T21:32:54.579Z,50.65
2017-05-19T21:33:45.820Z,50.42
2017-05-19T21:34:37.059Z,50.77
2017-05-19T21:35:28.322Z,52.02
2017-05-19T21:36:19.563Z,52.72
2017-05-19T21:37:10.815Z,50.57
2017-05-19T21:38:02.058Z,50.16
2017-05-19T21:38:53.307Z,51.70
2017-05-19T21:39:44.551Z,50.31
2017-05-19T21:40:35.818Z,50.29
2017-05-19T21:41:27.067Z,50.71
2017-05-19T21:42:18.323Z,50.88
2017-05-19T21:43:09.559Z,50.79
2017-05-19T21:44:00.795Z,50.56
2017-05-19T21:44:52.035Z,51.91
2017-05-19T21:45:43.295Z,52.75
2017-05-19T21:46:34.526Z,52.17
2017-05-19T21:47:25.767Z,51.40
2017-05-19T21:48:17.006Z,50.58
2017-05-19T21:49:08.255Z,51.80
2017-05-19T21:49:59.503Z,50.75
2017-05-19T21:50:50.766Z,51.71
2017-05-19T21:51:42.007Z,50.36
2017-05-19T21:52:33.494Z,50.90
2017-05-19T21:53:25.060Z,50.49
2017-05-19T21:54:16.295Z,51.34
2017-05-19T21:55:07.542Z,50.28
2017-05-19T21:55:58.794Z,50.58
2017-05-19T21:56:50.031Z,50.49
2017-05-19T21:57:41.271Z,50.48
2017-05-19T21:58:32.511Z,50.80
2017-05-19T21:59:23.751Z,50.53
2017-05-19T22:00:14.998Z,51.35
2017-05-19T22:01:06.259Z,50.70
2017-05-19T22:01:57.503Z,51.62
2017-05-19T22:02:48.747Z,50.50
2017-05-19T22:03:40.003Z,50.67
2017-05-19T22:04:31.254Z,50.79
2017-05-19T22:05:22.483Z,52.25
2017-05-19T22:06:13.759Z,50.83
2017-05-19T22:07:05.007Z,50.77
2017-05-19T22:07:56.239Z,51.45
2017-05-19T22:08:47.486Z,50.74
2017-05-19T22:09:38.742Z,50.54
2017-05-19T22:10:29.991Z,51.00
2017-05-19T22:11:21.285Z,50.98
2017-05-19T22:12:12.516Z,51.66
2017-05-19T22:13:03.753Z,50.40
2017-05-19T22:13:54.993Z,50.63
2017-05-19T22:14:46.231Z,50.84
2017-05-19T22:15:37.475Z,50.80
2017-05-19T22:16:28.751Z,51.35
2017-05-19T22:17:19.984Z,50.92
2017-05-19T22:18:11.230Z,50.68
2017-05-19T22:19:02.493Z,51.61
2017-05-19T22:19:53.731Z,51.10
2017-05-19T22:20:44.978Z,53.16
2017-05-19T22:21:36.227Z,51.09
2017-05-19T22:22:27.458Z,50.55
2017-05-19T22:23:18.703Z,51.32
2017-05-19T22:24:09.939Z,50.49
2017-05-19T22:25:01.187Z,50.90
2017-05-19T22:25:52.431Z,51.06
2017-05-19T22:26:43.687Z,50.64
2017-05-19T22:27:34.936Z,51.23
2017-05-19T22:28:26.168Z,50.72
2017-05-19T22:29:17.412Z,50.24
2017-05-19T22:30:08.655Z,50.41
2017-05-19T22:30:59.891Z,51.04
2017-05-19T22:31:51.154Z,51.57
2017-05-19T22:32:42.396Z,50.69
2017-05-19T22:33:33.638Z,50.55
2017-05-19T22:34:24.879Z,50.42
2017-05-19T22:35:16.119Z,50.42
